Saint Peter, Minnesota
Current Conditions -  °F | °C
As of 8:35 PM on Saturday 25 Oct 2014 (Local Time) from KMKT Reporting Station
Clear Clear  
Wind Chill: 52°   Ceiling: Unl
Heat Index: 52°   Visibility: 10mi
Dew Point: 27°   Wind: 3mph
Humidity: 38%   Direction: 310°NW
Pressure: 30.07"   Gusts: NA
Location:  44.32°N, 93.96°W
Report Text: KMKT 260135Z AUTO 31003KT 10SM CLR 11/M03 A3007 RMK AO1
Loading
Personal Weather Stations






























Interactive Weather Map
Tropical Storm Tracking
New forecast layout! Learn more

10-Day Weather Forecast

Advertisements
Track Severe Weather on mobile